sensor_id;sensor_type;location;lat;lon;timestamp;P1;durP1;ratioP1;P2;durP2;ratioP2
59986;SDS011;46181;51.498;5.392;2022-08-19T00:00:42;17.344;;;13.824;;
59986;SDS011;46181;51.498;5.392;2022-08-19T00:05:12;17.096;;;13.424;;
59986;SDS011;46181;51.498;5.392;2022-08-19T00:09:42;17.692;;;14.04;;
59986;SDS011;46181;51.498;5.392;2022-08-19T00:14:13;17.224;;;13.712;;
59986;SDS011;46181;51.498;5.392;2022-08-19T00:18:42;16.636;;;13.24;;
59986;SDS011;46181;51.498;5.392;2022-08-19T00:23:12;16.78;;;13.408;;
59986;SDS011;46181;51.498;5.392;2022-08-19T00:27:42;17.368;;;13.62;;
59986;SDS011;46181;51.498;5.392;2022-08-19T00:32:12;16.792;;;13.804;;
59986;SDS011;46181;51.498;5.392;2022-08-19T00:36:42;18.08;;;14.48;;
59986;SDS011;46181;51.498;5.392;2022-08-19T00:41:12;16.992;;;13.544;;
59986;SDS011;46181;51.498;5.392;2022-08-19T00:45:42;17.76;;;13.796;;
59986;SDS011;46181;51.498;5.392;2022-08-19T00:50:13;18.2;;;14.42;;
59986;SDS011;46181;51.498;5.392;2022-08-19T00:54:42;16.356;;;13.992;;
59986;SDS011;46181;51.498;5.392;2022-08-19T00:59:12;16.66;;;14.14;;
59986;SDS011;46181;51.498;5.392;2022-08-19T01:03:42;20.388;;;14.836;;
59986;SDS011;46181;51.498;5.392;2022-08-19T01:08:12;17.744;;;13.808;;
59986;SDS011;46181;51.498;5.392;2022-08-19T01:12:42;16.756;;;13.724;;
59986;SDS011;46181;51.498;5.392;2022-08-19T01:17:12;18.308;;;14.556;;
59986;SDS011;46181;51.498;5.392;2022-08-19T01:21:43;18.368;;;14.74;;
59986;SDS011;46181;51.498;5.392;2022-08-19T01:26:13;17.84;;;13.384;;
59986;SDS011;46181;51.498;5.392;2022-08-19T01:30:42;17.552;;;13.816;;
59986;SDS011;46181;51.498;5.392;2022-08-19T01:35:13;18.384;;;13.868;;
59986;SDS011;46181;51.498;5.392;2022-08-19T01:39:42;19.016;;;14.456;;
59986;SDS011;46181;51.498;5.392;2022-08-19T01:44:12;19.764;;;14.476;;
59986;SDS011;46181;51.498;5.392;2022-08-19T01:48:42;19.864;;;13.78;;
59986;SDS011;46181;51.498;5.392;2022-08-19T01:53:12;18.28;;;13.712;;
59986;SDS011;46181;51.498;5.392;2022-08-19T01:57:42;17.476;;;14.1;;
59986;SDS011;46181;51.498;5.392;2022-08-19T02:02:12;20.892;;;15.128;;
59986;SDS011;46181;51.498;5.392;2022-08-19T02:06:42;23.628;;;15.376;;
59986;SDS011;46181;51.498;5.392;2022-08-19T02:11:17;22.288;;;15.648;;
59986;SDS011;46181;51.498;5.392;2022-08-19T02:15:42;19.864;;;15.18;;
59986;SDS011;46181;51.498;5.392;2022-08-19T02:20:12;23.03601;;;15.364;;
59986;SDS011;46181;51.498;5.392;2022-08-19T02:24:42;22.84;;;15.396;;
59986;SDS011;46181;51.498;5.392;2022-08-19T02:29:12;21.116;;;15.836;;
59986;SDS011;46181;51.498;5.392;2022-08-19T02:33:42;22.028;;;15.872;;
59986;SDS011;46181;51.498;5.392;2022-08-19T02:38:12;19.736;;;15.216;;
59986;SDS011;46181;51.498;5.392;2022-08-19T02:42:42;21.66;;;15.688;;
59986;SDS011;46181;51.498;5.392;2022-08-19T02:47:13;22.712;;;15.508;;
59986;SDS011;46181;51.498;5.392;2022-08-19T02:51:43;20.256;;;15.532;;
59986;SDS011;46181;51.498;5.392;2022-08-19T02:56:12;22.976;;;15.152;;
59986;SDS011;46181;51.498;5.392;2022-08-19T03:00:45;20.968;;;15.748;;
59986;SDS011;46181;51.498;5.392;2022-08-19T03:05:12;24.64;;;17.324;;
59986;SDS011;46181;51.498;5.392;2022-08-19T03:09:42;23.592;;;17.008;;
59986;SDS011;46181;51.498;5.392;2022-08-19T03:14:12;23.18;;;16.376;;
59986;SDS011;46181;51.498;5.392;2022-08-19T03:18:42;26.252;;;17.536;;
59986;SDS011;46181;51.498;5.392;2022-08-19T03:23:12;25.416;;;17.268;;
59986;SDS011;46181;51.498;5.392;2022-08-19T03:27:42;25.372;;;17.744;;
59986;SDS011;46181;51.498;5.392;2022-08-19T03:32:12;26.12;;;18.552;;
59986;SDS011;46181;51.498;5.392;2022-08-19T03:36:42;26.592;;;19.32;;
59986;SDS011;46181;51.498;5.392;2022-08-19T03:41:14;25.592;;;18.996;;
59986;SDS011;46181;51.498;5.392;2022-08-19T03:45:42;27.116;;;19.228;;
59986;SDS011;46181;51.498;5.392;2022-08-19T03:50:12;27.336;;;19.448;;
59986;SDS011;46181;51.498;5.392;2022-08-19T03:54:42;27.692;;;19.424;;
59986;SDS011;46181;51.498;5.392;2022-08-19T03:59:13;29.488;;;19.832;;
59986;SDS011;46181;51.498;5.392;2022-08-19T04:03:42;29.18;;;20.356;;
59986;SDS011;46181;51.498;5.392;2022-08-19T04:08:12;30.136;;;20.568;;
59986;SDS011;46181;51.498;5.392;2022-08-19T04:12:42;31.58001;;;20.428;;
59986;SDS011;46181;51.498;5.392;2022-08-19T04:17:12;31.34401;;;20.94;;
59986;SDS011;46181;51.498;5.392;2022-08-19T04:21:42;31.476;;;20.736;;
59986;SDS011;46181;51.498;5.392;2022-08-19T04:26:16;28.368;;;20.104;;
59986;SDS011;46181;51.498;5.392;2022-08-19T04:30:43;31.484;;;21.456;;
59986;SDS011;46181;51.498;5.392;2022-08-19T04:35:12;33.188;;;20.94;;
59986;SDS011;46181;51.498;5.392;2022-08-19T04:39:42;30.28;;;20.684;;
59986;SDS011;46181;51.498;5.392;2022-08-19T04:44:12;34.168;;;22.176;;
59986;SDS011;46181;51.498;5.392;2022-08-19T04:48:42;32.2;;;22.112;;
59986;SDS011;46181;51.498;5.392;2022-08-19T04:53:12;20.124;;;14.224;;
59986;SDS011;46181;51.498;5.392;2022-08-19T04:57:42;21.216;;;14.624;;
59986;SDS011;46181;51.498;5.392;2022-08-19T05:02:12;22.02;;;14.624;;
59986;SDS011;46181;51.498;5.392;2022-08-19T05:06:42;23.788;;;15.656;;
59986;SDS011;46181;51.498;5.392;2022-08-19T05:11:13;22.756;;;14.136;;
59986;SDS011;46181;51.498;5.392;2022-08-19T05:15:42;24.356;;;15.584;;
59986;SDS011;46181;51.498;5.392;2022-08-19T05:20:13;24.764;;;15.964;;
59986;SDS011;46181;51.498;5.392;2022-08-19T05:24:42;24.732;;;16.428;;
59986;SDS011;46181;51.498;5.392;2022-08-19T05:29:12;38.788;;;23.8;;
59986;SDS011;46181;51.498;5.392;2022-08-19T05:33:42;39.28;;;23.4;;
59986;SDS011;46181;51.498;5.392;2022-08-19T05:38:12;39.78;;;24.436;;
59986;SDS011;46181;51.498;5.392;2022-08-19T05:42:42;43.936;;;26.72;;
59986;SDS011;46181;51.498;5.392;2022-08-19T05:47:12;38.672;;;23.528;;
59986;SDS011;46181;51.498;5.392;2022-08-19T05:51:42;38.468;;;23.704;;
59986;SDS011;46181;51.498;5.392;2022-08-19T05:56:14;41.236;;;24.032;;
59986;SDS011;46181;51.498;5.392;2022-08-19T06:00:42;38.8;;;22.64;;
59986;SDS011;46181;51.498;5.392;2022-08-19T06:05:12;41.432;;;24.808;;
59986;SDS011;46181;51.498;5.392;2022-08-19T06:09:42;31.844;;;19.328;;
59986;SDS011;46181;51.498;5.392;2022-08-19T06:14:13;38.636;;;23.288;;
59986;SDS011;46181;51.498;5.392;2022-08-19T06:18:42;39.84401;;;23.568;;
59986;SDS011;46181;51.498;5.392;2022-08-19T06:23:12;43.084;;;24.604;;
59986;SDS011;46181;51.498;5.392;2022-08-19T06:27:42;37.84;;;21.4;;
59986;SDS011;46181;51.498;5.392;2022-08-19T06:32:13;29.508;;;17.332;;
59986;SDS011;46181;51.498;5.392;2022-08-19T06:36:42;34.768;;;20.42;;
59986;SDS011;46181;51.498;5.392;2022-08-19T06:41:12;33.888;;;19.532;;
59986;SDS011;46181;51.498;5.392;2022-08-19T06:45:42;33.412;;;19.564;;
59986;SDS011;46181;51.498;5.392;2022-08-19T06:50:12;29.264;;;18.324;;
59986;SDS011;46181;51.498;5.392;2022-08-19T06:54:42;25.044;;;15.608;;
59986;SDS011;46181;51.498;5.392;2022-08-19T06:59:13;25.032;;;16.02;;
59986;SDS011;46181;51.498;5.392;2022-08-19T07:03:42;29.428;;;16.644;;
59986;SDS011;46181;51.498;5.392;2022-08-19T07:08:12;30.68;;;18.076;;
59986;SDS011;46181;51.498;5.392;2022-08-19T07:12:42;28.976;;;15.892;;
59986;SDS011;46181;51.498;5.392;2022-08-19T07:17:12;29.004;;;17.916;;
59986;SDS011;46181;51.498;5.392;2022-08-19T07:21:42;26.844;;;16.864;;
59986;SDS011;46181;51.498;5.392;2022-08-19T07:26:13;27.212;;;15.96;;
59986;SDS011;46181;51.498;5.392;2022-08-19T07:30:42;30.248;;;16.616;;
59986;SDS011;46181;51.498;5.392;2022-08-19T07:35:12;23.728;;;14.04;;
59986;SDS011;46181;51.498;5.392;2022-08-19T07:39:42;21.044;;;13.016;;
59986;SDS011;46181;51.498;5.392;2022-08-19T07:44:12;27.62;;;17.688;;
59986;SDS011;46181;51.498;5.392;2022-08-19T07:48:42;32.06;;;20.992;;
59986;SDS011;46181;51.498;5.392;2022-08-19T07:53:12;33.1;;;20.68;;
59986;SDS011;46181;51.498;5.392;2022-08-19T07:57:42;32.484;;;21.912;;
59986;SDS011;46181;51.498;5.392;2022-08-19T08:02:12;36.532;;;23.976;;
59986;SDS011;46181;51.498;5.392;2022-08-19T08:06:42;35.82;;;24.284;;
59986;SDS011;46181;51.498;5.392;2022-08-19T08:11:12;34.10001;;;23;;
59986;SDS011;46181;51.498;5.392;2022-08-19T08:15:42;36.292;;;23.64;;
59986;SDS011;46181;51.498;5.392;2022-08-19T08:20:13;26.824;;;18.972;;
59986;SDS011;46181;51.498;5.392;2022-08-19T08:24:42;31.384;;;22.108;;
59986;SDS011;46181;51.498;5.392;2022-08-19T08:29:12;30.58;;;23.044;;
59986;SDS011;46181;51.498;5.392;2022-08-19T08:33:42;25.992;;;17.932;;
59986;SDS011;46181;51.498;5.392;2022-08-19T08:38:12;33.096;;;20.548;;
59986;SDS011;46181;51.498;5.392;2022-08-19T08:42:43;23.46;;;17.268;;
59986;SDS011;46181;51.498;5.392;2022-08-19T08:47:13;22.496;;;15.104;;
59986;SDS011;46181;51.498;5.392;2022-08-19T08:51:44;20.352;;;14.356;;
59986;SDS011;46181;51.498;5.392;2022-08-19T08:56:12;21.228;;;15.22;;
59986;SDS011;46181;51.498;5.392;2022-08-19T09:00:43;29.66;;;17.704;;
59986;SDS011;46181;51.498;5.392;2022-08-19T09:05:12;27.516;;;17.228;;
59986;SDS011;46181;51.498;5.392;2022-08-19T09:09:43;27.408;;;19.5;;
59986;SDS011;46181;51.498;5.392;2022-08-19T09:14:13;29.31199;;;19.488;;
59986;SDS011;46181;51.498;5.392;2022-08-19T09:18:43;24.976;;;16.656;;
59986;SDS011;46181;51.498;5.392;2022-08-19T09:23:12;23.52;;;17.824;;
59986;SDS011;46181;51.498;5.392;2022-08-19T09:27:42;25.62;;;17.412;;
59986;SDS011;46181;51.498;5.392;2022-08-19T09:32:12;23.34;;;16.608;;
59986;SDS011;46181;51.498;5.392;2022-08-19T09:36:42;21.1;;;15.476;;
59986;SDS011;46181;51.498;5.392;2022-08-19T09:41:13;28.1;;;18.768;;
59986;SDS011;46181;51.498;5.392;2022-08-19T09:45:42;24.052;;;16.472;;
59986;SDS011;46181;51.498;5.392;2022-08-19T09:50:12;28.1;;;18.612;;
59986;SDS011;46181;51.498;5.392;2022-08-19T09:54:42;21.392;;;15.24;;
59986;SDS011;46181;51.498;5.392;2022-08-19T09:59:12;22.68;;;15.444;;
59986;SDS011;46181;51.498;5.392;2022-08-19T10:03:42;25.06;;;17.1;;
59986;SDS011;46181;51.498;5.392;2022-08-19T10:08:12;24.14;;;17.848;;
59986;SDS011;46181;51.498;5.392;2022-08-19T10:12:42;25.736;;;17.92;;
59986;SDS011;46181;51.498;5.392;2022-08-19T10:17:12;28.596;;;18.38;;
59986;SDS011;46181;51.498;5.392;2022-08-19T10:21:42;26.54;;;16.692;;
59986;SDS011;46181;51.498;5.392;2022-08-19T10:26:13;28.176;;;17.884;;
59986;SDS011;46181;51.498;5.392;2022-08-19T10:30:42;24.876;;;16.42;;
59986;SDS011;46181;51.498;5.392;2022-08-19T10:35:13;25.832;;;18.896;;
59986;SDS011;46181;51.498;5.392;2022-08-19T10:39:42;27.904;;;18.2;;
59986;SDS011;46181;51.498;5.392;2022-08-19T10:44:12;24.284;;;16.344;;
59986;SDS011;46181;51.498;5.392;2022-08-19T10:48:42;25.368;;;16.9;;
59986;SDS011;46181;51.498;5.392;2022-08-19T10:53:12;19.964;;;14.372;;
59986;SDS011;46181;51.498;5.392;2022-08-19T10:57:42;20.096;;;13.016;;
59986;SDS011;46181;51.498;5.392;2022-08-19T11:02:12;19.564;;;13.652;;
59986;SDS011;46181;51.498;5.392;2022-08-19T11:06:42;26.628;;;16.964;;
59986;SDS011;46181;51.498;5.392;2022-08-19T11:11:12;25.064;;;16.7;;
59986;SDS011;46181;51.498;5.392;2022-08-19T11:15:42;25.64;;;17.56;;
59986;SDS011;46181;51.498;5.392;2022-08-19T11:20:13;27.36;;;17.552;;
59986;SDS011;46181;51.498;5.392;2022-08-19T11:24:42;28.772;;;18.26;;
59986;SDS011;46181;51.498;5.392;2022-08-19T11:29:12;28.368;;;18.92;;
59986;SDS011;46181;51.498;5.392;2022-08-19T11:33:42;26.98;;;16.636;;
59986;SDS011;46181;51.498;5.392;2022-08-19T11:38:12;23.352;;;17.452;;
59986;SDS011;46181;51.498;5.392;2022-08-19T11:42:42;20.904;;;14.388;;
59986;SDS011;46181;51.498;5.392;2022-08-19T11:47:12;22.36;;;14.772;;
59986;SDS011;46181;51.498;5.392;2022-08-19T11:51:42;21.164;;;14.644;;
59986;SDS011;46181;51.498;5.392;2022-08-19T11:56:12;20.664;;;15.48;;
59986;SDS011;46181;51.498;5.392;2022-08-19T12:00:43;22.188;;;15.356;;
59986;SDS011;46181;51.498;5.392;2022-08-19T12:05:12;22.776;;;16.208;;
59986;SDS011;46181;51.498;5.392;2022-08-19T12:09:42;23.304;;;16.456;;
59986;SDS011;46181;51.498;5.392;2022-08-19T12:14:12;25.628;;;17.96;;
59986;SDS011;46181;51.498;5.392;2022-08-19T12:18:43;25.316;;;17.34;;
59986;SDS011;46181;51.498;5.392;2022-08-19T12:23:12;22.328;;;15.244;;
59986;SDS011;46181;51.498;5.392;2022-08-19T12:27:42;19.952;;;13.1;;
59986;SDS011;46181;51.498;5.392;2022-08-19T12:32:12;19.188;;;13.364;;
59986;SDS011;46181;51.498;5.392;2022-08-19T12:36:42;21.496;;;13.868;;
59986;SDS011;46181;51.498;5.392;2022-08-19T12:41:13;20.716;;;14.256;;
59986;SDS011;46181;51.498;5.392;2022-08-19T12:45:42;17.732;;;12.876;;
59986;SDS011;46181;51.498;5.392;2022-08-19T12:50:12;21.068;;;14.644;;
59986;SDS011;46181;51.498;5.392;2022-08-19T12:54:42;25.392;;;15.592;;
59986;SDS011;46181;51.498;5.392;2022-08-19T12:59:13;19.324;;;13.976;;
59986;SDS011;46181;51.498;5.392;2022-08-19T13:03:42;21.412;;;14.208;;
59986;SDS011;46181;51.498;5.392;2022-08-19T13:08:12;16.484;;;11.124;;
59986;SDS011;46181;51.498;5.392;2022-08-19T13:12:43;13.84;;;10.024;;
59986;SDS011;46181;51.498;5.392;2022-08-19T13:17:12;13.42;;;8.12;;
59986;SDS011;46181;51.498;5.392;2022-08-19T13:21:42;13.172;;;8.068002;;
59986;SDS011;46181;51.498;5.392;2022-08-19T13:26:12;11.988;;;7.971999;;
59986;SDS011;46181;51.498;5.392;2022-08-19T13:30:42;11.956;;;7.964001;;
59986;SDS011;46181;51.498;5.392;2022-08-19T13:35:12;11.632;;;8.192001;;
59986;SDS011;46181;51.498;5.392;2022-08-19T13:39:42;11.868;;;7.968;;
59986;SDS011;46181;51.498;5.392;2022-08-19T13:44:12;10.528;;;7.78;;
59986;SDS011;46181;51.498;5.392;2022-08-19T13:48:42;11.684;;;7.967999;;
59986;SDS011;46181;51.498;5.392;2022-08-19T13:53:12;11.132;;;7.795999;;
59986;SDS011;46181;51.498;5.392;2022-08-19T13:57:42;12.008;;;7.723999;;
59986;SDS011;46181;51.498;5.392;2022-08-19T14:02:12;10.8;;;7.956;;
59986;SDS011;46181;51.498;5.392;2022-08-19T14:06:42;11.324;;;7.572;;
59986;SDS011;46181;51.498;5.392;2022-08-19T14:11:12;13.572;;;7.632;;
59986;SDS011;46181;51.498;5.392;2022-08-19T14:15:42;11.688;;;7.828001;;
59986;SDS011;46181;51.498;5.392;2022-08-19T14:20:13;10.268;;;7.632;;
59986;SDS011;46181;51.498;5.392;2022-08-19T14:24:42;12.528;;;8.688;;
59986;SDS011;46181;51.498;5.392;2022-08-19T14:29:12;12.972;;;8.548;;
59986;SDS011;46181;51.498;5.392;2022-08-19T14:33:42;9.499999;;;7.992001;;
59986;SDS011;46181;51.498;5.392;2022-08-19T14:38:14;9.572;;;7.028;;
59986;SDS011;46181;51.498;5.392;2022-08-19T14:42:43;10.724;;;7.800001;;
59986;SDS011;46181;51.498;5.392;2022-08-19T14:47:12;15.048;;;9.140001;;
59986;SDS011;46181;51.498;5.392;2022-08-19T14:51:42;10.944;;;7.679999;;
59986;SDS011;46181;51.498;5.392;2022-08-19T14:56:14;14.084;;;8.692;;
59986;SDS011;46181;51.498;5.392;2022-08-19T15:00:42;12.332;;;9.056001;;
59986;SDS011;46181;51.498;5.392;2022-08-19T15:05:12;11.384;;;8.007998;;
59986;SDS011;46181;51.498;5.392;2022-08-19T15:09:42;11.624;;;8.823999;;
59986;SDS011;46181;51.498;5.392;2022-08-19T15:14:12;11.896;;;8.388;;
59986;SDS011;46181;51.498;5.392;2022-08-19T15:18:42;11.324;;;8.455999;;
59986;SDS011;46181;51.498;5.392;2022-08-19T15:23:12;11.444;;;8.004001;;
59986;SDS011;46181;51.498;5.392;2022-08-19T15:27:42;9.02;;;6.924;;
59986;SDS011;46181;51.498;5.392;2022-08-19T15:32:12;9.296001;;;6.848001;;
59986;SDS011;46181;51.498;5.392;2022-08-19T15:36:42;8.62;;;6.004;;
59986;SDS011;46181;51.498;5.392;2022-08-19T15:41:18;8.124;;;5.731999;;
59986;SDS011;46181;51.498;5.392;2022-08-19T15:45:43;8.075998;;;5.808001;;
59986;SDS011;46181;51.498;5.392;2022-08-19T15:50:14;7.788001;;;5.956001;;
59986;SDS011;46181;51.498;5.392;2022-08-19T15:54:42;7.908001;;;5.572;;
59986;SDS011;46181;51.498;5.392;2022-08-19T15:59:12;12.06;;;7.803999;;
59986;SDS011;46181;51.498;5.392;2022-08-19T16:03:43;10.8;;;7.54;;
59986;SDS011;46181;51.498;5.392;2022-08-19T16:08:12;12.464;;;9.412;;
59986;SDS011;46181;51.498;5.392;2022-08-19T16:12:42;12.92;;;8.891999;;
59986;SDS011;46181;51.498;5.392;2022-08-19T16:17:12;13.448;;;8.427998;;
59986;SDS011;46181;51.498;5.392;2022-08-19T16:21:43;13.752;;;8.736;;
59986;SDS011;46181;51.498;5.392;2022-08-19T16:26:13;13.864;;;8.404;;
59986;SDS011;46181;51.498;5.392;2022-08-19T16:30:42;12.972;;;8.191999;;
59986;SDS011;46181;51.498;5.392;2022-08-19T16:35:12;11.324;;;7.559999;;
59986;SDS011;46181;51.498;5.392;2022-08-19T16:39:42;13.088;;;7.428;;
59986;SDS011;46181;51.498;5.392;2022-08-19T16:44:13;12.592;;;7.663999;;
59986;SDS011;46181;51.498;5.392;2022-08-19T16:48:42;11.208;;;6.928;;
59986;SDS011;46181;51.498;5.392;2022-08-19T16:53:12;12.348;;;7.192;;
59986;SDS011;46181;51.498;5.392;2022-08-19T16:57:42;12.928;;;7.316;;
59986;SDS011;46181;51.498;5.392;2022-08-19T17:02:12;12.052;;;7.02;;
59986;SDS011;46181;51.498;5.392;2022-08-19T17:06:42;25.48;;;10.888;;
59986;SDS011;46181;51.498;5.392;2022-08-19T17:11:12;17.964;;;9.052001;;
59986;SDS011;46181;51.498;5.392;2022-08-19T17:15:42;13.62;;;8.004001;;
59986;SDS011;46181;51.498;5.392;2022-08-19T17:20:13;13.82;;;8.744;;
59986;SDS011;46181;51.498;5.392;2022-08-19T17:24:42;0.26;;;0.164;;
59986;SDS011;46181;51.498;5.392;2022-08-19T17:29:12;0.128;;;0.128;;
59986;SDS011;46181;51.498;5.392;2022-08-19T17:33:42;0.452;;;0.092;;
59986;SDS011;46181;51.498;5.392;2022-08-19T17:38:14;0;;;0;;
59986;SDS011;46181;51.498;5.392;2022-08-19T17:42:42;0;;;0;;
59986;SDS011;46181;51.498;5.392;2022-08-19T17:47:12;0;;;0;;
59986;SDS011;46181;51.498;5.392;2022-08-19T17:51:44;0;;;0;;
59986;SDS011;46181;51.498;5.392;2022-08-19T17:56:12;0;;;0;;
59986;SDS011;46181;51.498;5.392;2022-08-19T18:00:42;0;;;0;;
59986;SDS011;46181;51.498;5.392;2022-08-19T18:05:13;0;;;0;;
59986;SDS011;46181;51.498;5.392;2022-08-19T18:09:42;0;;;0;;
59986;SDS011;46181;51.498;5.392;2022-08-19T18:14:12;0;;;0;;
59986;SDS011;46181;51.498;5.392;2022-08-19T18:18:43;0;;;0;;
59986;SDS011;46181;51.498;5.392;2022-08-19T18:23:12;0;;;0;;
59986;SDS011;46181;51.498;5.392;2022-08-19T18:27:42;0;;;0;;
59986;SDS011;46181;51.498;5.392;2022-08-19T18:32:13;0;;;0;;
59986;SDS011;46181;51.498;5.392;2022-08-19T18:36:42;0;;;0;;
59986;SDS011;46181;51.498;5.392;2022-08-19T18:41:12;0;;;0;;
59986;SDS011;46181;51.498;5.392;2022-08-19T18:45:42;0;;;0;;
59986;SDS011;46181;51.498;5.392;2022-08-19T18:50:13;0.008;;;0.008;;
59986;SDS011;46181;51.498;5.392;2022-08-19T18:54:43;0.136;;;0.136;;
59986;SDS011;46181;51.498;5.392;2022-08-19T18:59:13;0.296;;;0.136;;
59986;SDS011;46181;51.498;5.392;2022-08-19T19:03:44;0;;;0;;
59986;SDS011;46181;51.498;5.392;2022-08-19T19:08:12;0;;;0;;
59986;SDS011;46181;51.498;5.392;2022-08-19T19:12:42;6.119999;;;4.036;;
59986;SDS011;46181;51.498;5.392;2022-08-19T19:17:13;7.192;;;4.596;;
59986;SDS011;46181;51.498;5.392;2022-08-19T19:21:43;7.876;;;4.731999;;
59986;SDS011;46181;51.498;5.392;2022-08-19T19:26:13;7.795999;;;4.484;;
59986;SDS011;46181;51.498;5.392;2022-08-19T19:30:42;9.000002;;;5.207999;;
59986;SDS011;46181;51.498;5.392;2022-08-19T19:35:13;8.844;;;5.02;;
59986;SDS011;46181;51.498;5.392;2022-08-19T19:39:42;8.348;;;5.952;;
59986;SDS011;46181;51.498;5.392;2022-08-19T19:44:13;8.399999;;;5.312001;;
59986;SDS011;46181;51.498;5.392;2022-08-19T19:48:42;8.716001;;;5.655999;;
59986;SDS011;46181;51.498;5.392;2022-08-19T19:53:12;8.3;;;5.932001;;
59986;SDS011;46181;51.498;5.392;2022-08-19T19:57:43;8.284;;;5.163999;;
59986;SDS011;46181;51.498;5.392;2022-08-19T20:02:12;8.072;;;5.631999;;
59986;SDS011;46181;51.498;5.392;2022-08-19T20:06:43;8.823999;;;5.76;;
59986;SDS011;46181;51.498;5.392;2022-08-19T20:11:13;8.532001;;;5.707999;;
59986;SDS011;46181;51.498;5.392;2022-08-19T20:15:42;10.46;;;5.832001;;
59986;SDS011;46181;51.498;5.392;2022-08-19T20:20:14;8.412001;;;5.820001;;
59986;SDS011;46181;51.498;5.392;2022-08-19T20:24:43;9.592001;;;6.256001;;
59986;SDS011;46181;51.498;5.392;2022-08-19T20:29:13;9.816;;;6.324001;;
59986;SDS011;46181;51.498;5.392;2022-08-19T20:33:43;8.699999;;;5.748;;
59986;SDS011;46181;51.498;5.392;2022-08-19T20:38:13;8.6;;;5.408;;
59986;SDS011;46181;51.498;5.392;2022-08-19T20:42:43;9.668;;;5.711999;;
59986;SDS011;46181;51.498;5.392;2022-08-19T20:47:12;10.612;;;5.615999;;
59986;SDS011;46181;51.498;5.392;2022-08-19T20:51:43;9.440002;;;5.603998;;
59986;SDS011;46181;51.498;5.392;2022-08-19T20:56:13;8.448001;;;5.58;;
59986;SDS011;46181;51.498;5.392;2022-08-19T21:00:43;9.748;;;5.655999;;
59986;SDS011;46181;51.498;5.392;2022-08-19T21:05:12;8.151999;;;5.671999;;
59986;SDS011;46181;51.498;5.392;2022-08-19T21:09:43;9.948;;;5.684;;
59986;SDS011;46181;51.498;5.392;2022-08-19T21:14:13;8.476002;;;5.912001;;
59986;SDS011;46181;51.498;5.392;2022-08-19T21:18:42;9.84;;;6.048;;
59986;SDS011;46181;51.498;5.392;2022-08-19T21:23:14;9.148001;;;5.536;;
59986;SDS011;46181;51.498;5.392;2022-08-19T21:27:43;8.592;;;5.707999;;
59986;SDS011;46181;51.498;5.392;2022-08-19T21:32:13;9.907999;;;6.188001;;
59986;SDS011;46181;51.498;5.392;2022-08-19T21:36:43;7.004;;;4.896;;
59986;SDS011;46181;51.498;5.392;2022-08-19T21:41:13;6.88;;;4.208;;
59986;SDS011;46181;51.498;5.392;2022-08-19T21:45:43;7.756001;;;4.164;;
59986;SDS011;46181;51.498;5.392;2022-08-19T21:50:13;7.832;;;4.208;;
59986;SDS011;46181;51.498;5.392;2022-08-19T21:54:43;7.728001;;;4.480001;;
59986;SDS011;46181;51.498;5.392;2022-08-19T21:59:13;7.196001;;;4.155999;;
59986;SDS011;46181;51.498;5.392;2022-08-19T22:03:43;7.164001;;;4.288;;
59986;SDS011;46181;51.498;5.392;2022-08-19T22:08:13;7.02;;;4.272001;;
59986;SDS011;46181;51.498;5.392;2022-08-19T22:12:43;7.300001;;;4.800001;;
59986;SDS011;46181;51.498;5.392;2022-08-19T22:17:13;7.007999;;;4.816;;
59986;SDS011;46181;51.498;5.392;2022-08-19T22:21:43;7.400001;;;4.768001;;
59986;SDS011;46181;51.498;5.392;2022-08-19T22:26:13;9.371999;;;5.207999;;
59986;SDS011;46181;51.498;5.392;2022-08-19T22:30:43;9.636001;;;5.556;;
59986;SDS011;46181;51.498;5.392;2022-08-19T22:35:14;9.208001;;;5.22;;
59986;SDS011;46181;51.498;5.392;2022-08-19T22:39:43;8.588001;;;5.312001;;
59986;SDS011;46181;51.498;5.392;2022-08-19T22:44:13;8.795999;;;5.519999;;
59986;SDS011;46181;51.498;5.392;2022-08-19T22:48:43;11.336;;;6.599999;;
59986;SDS011;46181;51.498;5.392;2022-08-19T22:53:13;12.3;;;6.488;;
59986;SDS011;46181;51.498;5.392;2022-08-19T22:57:43;10.572;;;6.248001;;
59986;SDS011;46181;51.498;5.392;2022-08-19T23:02:16;9.903999;;;7.016;;
59986;SDS011;46181;51.498;5.392;2022-08-19T23:06:43;13.188;;;7.035998;;
59986;SDS011;46181;51.498;5.392;2022-08-19T23:11:13;10.376;;;5.995999;;
59986;SDS011;46181;51.498;5.392;2022-08-19T23:15:43;13.56;;;7.168;;
59986;SDS011;46181;51.498;5.392;2022-08-19T23:20:13;12.444;;;6.888;;
59986;SDS011;46181;51.498;5.392;2022-08-19T23:24:43;11.84;;;7.468;;
59986;SDS011;46181;51.498;5.392;2022-08-19T23:29:13;13.544;;;7.248;;
59986;SDS011;46181;51.498;5.392;2022-08-19T23:33:43;11.724;;;7.167999;;
59986;SDS011;46181;51.498;5.392;2022-08-19T23:38:13;13.98;;;7.159999;;
59986;SDS011;46181;51.498;5.392;2022-08-19T23:42:43;11.736;;;6.972001;;
59986;SDS011;46181;51.498;5.392;2022-08-19T23:47:13;11.56;;;7.036001;;
59986;SDS011;46181;51.498;5.392;2022-08-19T23:51:43;13.604;;;7.408;;
59986;SDS011;46181;51.498;5.392;2022-08-19T23:56:13;11.544;;;7.768;;
